sensor_id;sensor_type;location;lat;lon;timestamp;temperature;humidity
24618;DHT22;12762;51.730;5.356;2023-10-31T00:00:22;11.40;93.90
24618;DHT22;12762;51.730;5.356;2023-10-31T00:02:49;11.40;93.90
24618;DHT22;12762;51.730;5.356;2023-10-31T00:05:16;11.40;93.90
24618;DHT22;12762;51.730;5.356;2023-10-31T00:07:47;11.40;93.80
24618;DHT22;12762;51.730;5.356;2023-10-31T00:10:17;11.40;93.90
24618;DHT22;12762;51.730;5.356;2023-10-31T00:12:46;11.40;93.90
24618;DHT22;12762;51.730;5.356;2023-10-31T00:15:14;11.40;93.90
24618;DHT22;12762;51.730;5.356;2023-10-31T00:17:41;11.40;93.90
24618;DHT22;12762;51.730;5.356;2023-10-31T00:20:07;11.40;93.90
24618;DHT22;12762;51.730;5.356;2023-10-31T00:22:37;11.50;93.90
24618;DHT22;12762;51.730;5.356;2023-10-31T00:25:04;11.40;93.90
24618;DHT22;12762;51.730;5.356;2023-10-31T00:27:32;11.40;93.90
24618;DHT22;12762;51.730;5.356;2023-10-31T00:29:59;11.40;93.90
24618;DHT22;12762;51.730;5.356;2023-10-31T00:32:25;11.40;93.90
24618;DHT22;12762;51.730;5.356;2023-10-31T00:34:52;11.40;93.90
24618;DHT22;12762;51.730;5.356;2023-10-31T00:37:19;11.40;93.90
24618;DHT22;12762;51.730;5.356;2023-10-31T00:39:46;11.40;94.00
24618;DHT22;12762;51.730;5.356;2023-10-31T00:42:13;11.40;94.00
24618;DHT22;12762;51.730;5.356;2023-10-31T00:44:41;11.40;94.10
24618;DHT22;12762;51.730;5.356;2023-10-31T00:47:08;11.40;94.10
24618;DHT22;12762;51.730;5.356;2023-10-31T00:49:35;11.40;94.10
24618;DHT22;12762;51.730;5.356;2023-10-31T00:52:02;11.40;94.10
24618;DHT22;12762;51.730;5.356;2023-10-31T00:54:29;11.40;94.10
24618;DHT22;12762;51.730;5.356;2023-10-31T00:56:56;11.40;94.10
24618;DHT22;12762;51.730;5.356;2023-10-31T00:59:23;11.50;94.10
24618;DHT22;12762;51.730;5.356;2023-10-31T01:01:50;11.40;94.10
24618;DHT22;12762;51.730;5.356;2023-10-31T01:04:17;11.50;94.10
24618;DHT22;12762;51.730;5.356;2023-10-31T01:06:44;11.50;94.10
24618;DHT22;12762;51.730;5.356;2023-10-31T01:09:11;11.50;94.10
24618;DHT22;12762;51.730;5.356;2023-10-31T01:11:38;11.50;94.20
24618;DHT22;12762;51.730;5.356;2023-10-31T01:14:05;11.50;94.10
24618;DHT22;12762;51.730;5.356;2023-10-31T01:16:32;11.50;94.10
24618;DHT22;12762;51.730;5.356;2023-10-31T01:18:59;11.50;94.10
24618;DHT22;12762;51.730;5.356;2023-10-31T01:21:28;11.50;94.10
24618;DHT22;12762;51.730;5.356;2023-10-31T01:23:55;11.50;94.10
24618;DHT22;12762;51.730;5.356;2023-10-31T01:26:22;11.50;94.10
24618;DHT22;12762;51.730;5.356;2023-10-31T01:28:48;11.50;94.10
24618;DHT22;12762;51.730;5.356;2023-10-31T01:31:15;11.50;94.10
24618;DHT22;12762;51.730;5.356;2023-10-31T01:33:42;11.50;94.40
24618;DHT22;12762;51.730;5.356;2023-10-31T01:36:09;11.50;94.10
24618;DHT22;12762;51.730;5.356;2023-10-31T01:38:38;11.50;94.10
24618;DHT22;12762;51.730;5.356;2023-10-31T01:41:05;11.50;94.10
24618;DHT22;12762;51.730;5.356;2023-10-31T01:43:33;11.50;94.10
24618;DHT22;12762;51.730;5.356;2023-10-31T01:46:01;11.50;94.10
24618;DHT22;12762;51.730;5.356;2023-10-31T01:48:29;11.50;94.50
24618;DHT22;12762;51.730;5.356;2023-10-31T01:50:58;11.40;94.00
24618;DHT22;12762;51.730;5.356;2023-10-31T01:53:26;11.40;94.10
24618;DHT22;12762;51.730;5.356;2023-10-31T01:55:54;11.40;94.10
24618;DHT22;12762;51.730;5.356;2023-10-31T01:58:25;11.40;94.10
24618;DHT22;12762;51.730;5.356;2023-10-31T02:00:55;11.40;94.10
24618;DHT22;12762;51.730;5.356;2023-10-31T02:03:25;11.40;94.10
24618;DHT22;12762;51.730;5.356;2023-10-31T02:05:56;11.40;94.10
24618;DHT22;12762;51.730;5.356;2023-10-31T02:08:27;11.40;94.20
24618;DHT22;12762;51.730;5.356;2023-10-31T02:10:54;11.40;94.10
24618;DHT22;12762;51.730;5.356;2023-10-31T02:13:20;11.40;94.10
24618;DHT22;12762;51.730;5.356;2023-10-31T02:15:47;11.40;94.20
24618;DHT22;12762;51.730;5.356;2023-10-31T02:18:17;11.40;94.20
24618;DHT22;12762;51.730;5.356;2023-10-31T02:20:48;11.40;94.20
24618;DHT22;12762;51.730;5.356;2023-10-31T02:23:17;11.50;94.30
24618;DHT22;12762;51.730;5.356;2023-10-31T02:25:44;11.40;94.30
24618;DHT22;12762;51.730;5.356;2023-10-31T02:28:11;11.50;94.30
24618;DHT22;12762;51.730;5.356;2023-10-31T02:30:38;11.50;94.30
24618;DHT22;12762;51.730;5.356;2023-10-31T02:33:04;11.50;94.30
24618;DHT22;12762;51.730;5.356;2023-10-31T02:35:31;11.50;94.70
24618;DHT22;12762;51.730;5.356;2023-10-31T02:37:58;11.50;94.40
24618;DHT22;12762;51.730;5.356;2023-10-31T02:40:25;11.50;94.30
24618;DHT22;12762;51.730;5.356;2023-10-31T02:42:52;11.60;94.40
24618;DHT22;12762;51.730;5.356;2023-10-31T02:45:19;11.60;94.40
24618;DHT22;12762;51.730;5.356;2023-10-31T02:47:46;11.60;94.40
24618;DHT22;12762;51.730;5.356;2023-10-31T02:50:13;11.60;94.40
24618;DHT22;12762;51.730;5.356;2023-10-31T02:52:41;11.60;94.40
24618;DHT22;12762;51.730;5.356;2023-10-31T02:55:08;11.60;94.40
24618;DHT22;12762;51.730;5.356;2023-10-31T02:57:35;11.60;94.40
24618;DHT22;12762;51.730;5.356;2023-10-31T03:00:02;11.60;94.40
24618;DHT22;12762;51.730;5.356;2023-10-31T03:02:31;11.60;94.40
24618;DHT22;12762;51.730;5.356;2023-10-31T03:04:58;11.60;94.40
24618;DHT22;12762;51.730;5.356;2023-10-31T03:07:28;11.60;94.50
24618;DHT22;12762;51.730;5.356;2023-10-31T03:09:55;11.60;94.40
24618;DHT22;12762;51.730;5.356;2023-10-31T03:12:22;11.60;94.50
24618;DHT22;12762;51.730;5.356;2023-10-31T03:14:50;11.60;94.50
24618;DHT22;12762;51.730;5.356;2023-10-31T03:17:16;11.60;94.50
24618;DHT22;12762;51.730;5.356;2023-10-31T03:19:43;11.60;94.50
24618;DHT22;12762;51.730;5.356;2023-10-31T03:22:10;11.60;94.50
24618;DHT22;12762;51.730;5.356;2023-10-31T03:24:37;11.60;94.50
24618;DHT22;12762;51.730;5.356;2023-10-31T03:27:04;11.60;94.50
24618;DHT22;12762;51.730;5.356;2023-10-31T03:29:31;11.60;94.50
24618;DHT22;12762;51.730;5.356;2023-10-31T03:31:57;11.60;94.60
24618;DHT22;12762;51.730;5.356;2023-10-31T03:34:24;11.60;94.60
24618;DHT22;12762;51.730;5.356;2023-10-31T03:36:51;11.60;94.60
24618;DHT22;12762;51.730;5.356;2023-10-31T03:39:18;11.60;94.60
24618;DHT22;12762;51.730;5.356;2023-10-31T03:41:45;11.60;94.60
24618;DHT22;12762;51.730;5.356;2023-10-31T03:44:13;11.60;94.60
24618;DHT22;12762;51.730;5.356;2023-10-31T03:46:42;11.60;94.60
24618;DHT22;12762;51.730;5.356;2023-10-31T03:49:09;11.60;94.60
24618;DHT22;12762;51.730;5.356;2023-10-31T03:51:36;11.60;94.60
24618;DHT22;12762;51.730;5.356;2023-10-31T03:54:03;11.60;94.60
24618;DHT22;12762;51.730;5.356;2023-10-31T03:56:29;11.60;94.60
24618;DHT22;12762;51.730;5.356;2023-10-31T03:58:56;11.60;94.70
24618;DHT22;12762;51.730;5.356;2023-10-31T04:01:23;11.60;94.70
24618;DHT22;12762;51.730;5.356;2023-10-31T04:03:50;11.60;94.70
24618;DHT22;12762;51.730;5.356;2023-10-31T04:06:16;11.60;94.70
24618;DHT22;12762;51.730;5.356;2023-10-31T04:08:43;11.60;94.70
24618;DHT22;12762;51.730;5.356;2023-10-31T04:11:10;11.60;94.70
24618;DHT22;12762;51.730;5.356;2023-10-31T04:13:37;11.60;94.70
24618;DHT22;12762;51.730;5.356;2023-10-31T04:16:06;11.70;94.80
24618;DHT22;12762;51.730;5.356;2023-10-31T04:18:33;11.70;94.80
24618;DHT22;12762;51.730;5.356;2023-10-31T04:21:00;11.70;94.80
24618;DHT22;12762;51.730;5.356;2023-10-31T04:23:27;11.70;94.80
24618;DHT22;12762;51.730;5.356;2023-10-31T04:25:53;11.70;94.80
24618;DHT22;12762;51.730;5.356;2023-10-31T04:28:20;11.70;94.90
24618;DHT22;12762;51.730;5.356;2023-10-31T04:30:47;11.70;95.20
24618;DHT22;12762;51.730;5.356;2023-10-31T04:33:14;11.70;94.90
24618;DHT22;12762;51.730;5.356;2023-10-31T04:35:43;11.70;94.90
24618;DHT22;12762;51.730;5.356;2023-10-31T04:38:10;11.70;94.90
24618;DHT22;12762;51.730;5.356;2023-10-31T04:40:38;11.70;94.90
24618;DHT22;12762;51.730;5.356;2023-10-31T04:43:04;11.70;94.90
24618;DHT22;12762;51.730;5.356;2023-10-31T04:45:31;11.70;94.90
24618;DHT22;12762;51.730;5.356;2023-10-31T04:47:58;11.70;95.00
24618;DHT22;12762;51.730;5.356;2023-10-31T04:50:25;11.70;94.90
24618;DHT22;12762;51.730;5.356;2023-10-31T04:52:54;11.70;95.00
24618;DHT22;12762;51.730;5.356;2023-10-31T04:55:21;11.70;95.00
24618;DHT22;12762;51.730;5.356;2023-10-31T04:57:48;11.70;94.90
24618;DHT22;12762;51.730;5.356;2023-10-31T05:00:17;11.70;95.00
24618;DHT22;12762;51.730;5.356;2023-10-31T05:02:44;11.60;95.00
24618;DHT22;12762;51.730;5.356;2023-10-31T05:05:11;11.60;95.00
24618;DHT22;12762;51.730;5.356;2023-10-31T05:07:38;11.60;95.00
24618;DHT22;12762;51.730;5.356;2023-10-31T05:10:06;11.60;95.00
24618;DHT22;12762;51.730;5.356;2023-10-31T05:12:36;11.60;95.00
24618;DHT22;12762;51.730;5.356;2023-10-31T05:15:04;11.60;95.00
24618;DHT22;12762;51.730;5.356;2023-10-31T05:17:31;11.60;95.00
24618;DHT22;12762;51.730;5.356;2023-10-31T05:19:58;11.60;95.00
24618;DHT22;12762;51.730;5.356;2023-10-31T05:22:24;11.60;95.00
24618;DHT22;12762;51.730;5.356;2023-10-31T05:24:52;11.60;95.10
24618;DHT22;12762;51.730;5.356;2023-10-31T05:27:18;11.60;95.00
24618;DHT22;12762;51.730;5.356;2023-10-31T05:29:45;11.50;95.00
24618;DHT22;12762;51.730;5.356;2023-10-31T05:32:12;11.50;95.00
24618;DHT22;12762;51.730;5.356;2023-10-31T05:34:41;11.50;95.00
24618;DHT22;12762;51.730;5.356;2023-10-31T05:37:08;11.50;95.00
24618;DHT22;12762;51.730;5.356;2023-10-31T05:39:38;11.50;95.00
24618;DHT22;12762;51.730;5.356;2023-10-31T05:42:05;11.50;95.10
24618;DHT22;12762;51.730;5.356;2023-10-31T05:44:31;11.50;95.10
24618;DHT22;12762;51.730;5.356;2023-10-31T05:46:58;11.50;95.10
24618;DHT22;12762;51.730;5.356;2023-10-31T05:49:25;11.50;95.10
24618;DHT22;12762;51.730;5.356;2023-10-31T05:51:52;11.50;95.10
24618;DHT22;12762;51.730;5.356;2023-10-31T05:54:22;11.50;95.10
24618;DHT22;12762;51.730;5.356;2023-10-31T05:56:51;11.50;95.10
24618;DHT22;12762;51.730;5.356;2023-10-31T05:59:18;11.50;95.10
24618;DHT22;12762;51.730;5.356;2023-10-31T06:01:48;11.50;95.10
24618;DHT22;12762;51.730;5.356;2023-10-31T06:04:16;11.50;95.10
24618;DHT22;12762;51.730;5.356;2023-10-31T06:06:43;11.50;95.10
24618;DHT22;12762;51.730;5.356;2023-10-31T06:09:10;11.50;95.10
24618;DHT22;12762;51.730;5.356;2023-10-31T06:11:42;11.50;95.10
24618;DHT22;12762;51.730;5.356;2023-10-31T06:14:09;11.50;95.10
24618;DHT22;12762;51.730;5.356;2023-10-31T06:16:44;11.50;95.10
24618;DHT22;12762;51.730;5.356;2023-10-31T06:19:11;11.50;95.10
24618;DHT22;12762;51.730;5.356;2023-10-31T06:21:38;11.50;95.20
24618;DHT22;12762;51.730;5.356;2023-10-31T06:24:05;11.50;95.20
24618;DHT22;12762;51.730;5.356;2023-10-31T06:26:31;11.50;95.20
24618;DHT22;12762;51.730;5.356;2023-10-31T06:28:58;11.40;95.10
24618;DHT22;12762;51.730;5.356;2023-10-31T06:31:45;11.50;95.20
24618;DHT22;12762;51.730;5.356;2023-10-31T06:34:12;11.40;95.10
24618;DHT22;12762;51.730;5.356;2023-10-31T06:36:38;11.40;95.10
24618;DHT22;12762;51.730;5.356;2023-10-31T06:39:05;11.40;95.10
24618;DHT22;12762;51.730;5.356;2023-10-31T06:41:33;11.40;95.10
24618;DHT22;12762;51.730;5.356;2023-10-31T06:44:00;11.30;95.10
24618;DHT22;12762;51.730;5.356;2023-10-31T06:46:26;11.30;95.10
24618;DHT22;12762;51.730;5.356;2023-10-31T06:48:53;11.30;95.20
24618;DHT22;12762;51.730;5.356;2023-10-31T06:51:23;11.30;95.50
24618;DHT22;12762;51.730;5.356;2023-10-31T06:53:50;11.30;95.20
24618;DHT22;12762;51.730;5.356;2023-10-31T06:56:17;11.30;95.20
24618;DHT22;12762;51.730;5.356;2023-10-31T06:58:45;11.30;95.10
24618;DHT22;12762;51.730;5.356;2023-10-31T07:01:12;11.30;95.10
24618;DHT22;12762;51.730;5.356;2023-10-31T07:03:40;11.30;95.10
24618;DHT22;12762;51.730;5.356;2023-10-31T07:06:07;11.30;95.20
24618;DHT22;12762;51.730;5.356;2023-10-31T07:08:34;11.30;95.10
24618;DHT22;12762;51.730;5.356;2023-10-31T07:11:00;11.20;95.10
24618;DHT22;12762;51.730;5.356;2023-10-31T07:13:30;11.20;95.10
24618;DHT22;12762;51.730;5.356;2023-10-31T07:15:57;11.20;95.10
24618;DHT22;12762;51.730;5.356;2023-10-31T07:18:24;11.20;95.10
24618;DHT22;12762;51.730;5.356;2023-10-31T07:20:50;11.20;95.10
24618;DHT22;12762;51.730;5.356;2023-10-31T07:23:20;11.20;95.10
24618;DHT22;12762;51.730;5.356;2023-10-31T07:25:47;11.20;95.10
24618;DHT22;12762;51.730;5.356;2023-10-31T07:28:17;11.20;95.10
24618;DHT22;12762;51.730;5.356;2023-10-31T07:30:48;11.20;95.10
24618;DHT22;12762;51.730;5.356;2023-10-31T07:33:17;11.20;95.10
24618;DHT22;12762;51.730;5.356;2023-10-31T07:35:44;11.20;95.10
24618;DHT22;12762;51.730;5.356;2023-10-31T07:38:11;11.20;95.10
24618;DHT22;12762;51.730;5.356;2023-10-31T07:40:38;11.20;95.10
24618;DHT22;12762;51.730;5.356;2023-10-31T07:43:04;11.20;95.10
24618;DHT22;12762;51.730;5.356;2023-10-31T07:45:31;11.30;95.20
24618;DHT22;12762;51.730;5.356;2023-10-31T07:48:01;11.30;95.20
24618;DHT22;12762;51.730;5.356;2023-10-31T07:50:28;11.30;95.10
24618;DHT22;12762;51.730;5.356;2023-10-31T07:52:55;11.30;95.10
24618;DHT22;12762;51.730;5.356;2023-10-31T07:55:22;11.30;95.10
24618;DHT22;12762;51.730;5.356;2023-10-31T07:57:51;11.30;95.00
24618;DHT22;12762;51.730;5.356;2023-10-31T08:00:21;11.40;95.10
24618;DHT22;12762;51.730;5.356;2023-10-31T08:02:48;11.40;95.10
24618;DHT22;12762;51.730;5.356;2023-10-31T08:05:15;11.50;95.10
24618;DHT22;12762;51.730;5.356;2023-10-31T08:07:42;11.70;95.50
24618;DHT22;12762;51.730;5.356;2023-10-31T08:10:09;12.50;96.00
24618;DHT22;12762;51.730;5.356;2023-10-31T08:12:39;13.30;95.50
24618;DHT22;12762;51.730;5.356;2023-10-31T08:15:06;14.10;94.40
24618;DHT22;12762;51.730;5.356;2023-10-31T08:17:33;14.60;93.40
24618;DHT22;12762;51.730;5.356;2023-10-31T08:20:00;14.80;92.50
24618;DHT22;12762;51.730;5.356;2023-10-31T08:22:30;15.00;92.00
24618;DHT22;12762;51.730;5.356;2023-10-31T08:24:57;15.40;91.70
24618;DHT22;12762;51.730;5.356;2023-10-31T08:27:23;15.60;91.20
24618;DHT22;12762;51.730;5.356;2023-10-31T08:29:50;15.70;90.70
24618;DHT22;12762;51.730;5.356;2023-10-31T08:32:17;15.80;90.70
24618;DHT22;12762;51.730;5.356;2023-10-31T08:34:44;15.90;90.10
24618;DHT22;12762;51.730;5.356;2023-10-31T08:37:14;16.00;89.80
24618;DHT22;12762;51.730;5.356;2023-10-31T08:39:41;16.00;88.80
24618;DHT22;12762;51.730;5.356;2023-10-31T08:42:10;15.80;88.80
24618;DHT22;12762;51.730;5.356;2023-10-31T08:44:40;15.60;88.70
24618;DHT22;12762;51.730;5.356;2023-10-31T08:47:06;15.30;88.80
24618;DHT22;12762;51.730;5.356;2023-10-31T08:49:33;15.10;89.20
24618;DHT22;12762;51.730;5.356;2023-10-31T08:52:00;14.90;89.60
24618;DHT22;12762;51.730;5.356;2023-10-31T08:54:28;14.70;90.10
24618;DHT22;12762;51.730;5.356;2023-10-31T08:56:55;14.60;90.40
24618;DHT22;12762;51.730;5.356;2023-10-31T08:59:25;14.50;90.60
24618;DHT22;12762;51.730;5.356;2023-10-31T09:01:52;14.50;90.80
24618;DHT22;12762;51.730;5.356;2023-10-31T09:04:19;14.40;90.90
24618;DHT22;12762;51.730;5.356;2023-10-31T09:06:46;14.40;91.00
24618;DHT22;12762;51.730;5.356;2023-10-31T09:09:13;14.30;91.00
24618;DHT22;12762;51.730;5.356;2023-10-31T09:11:40;14.20;91.20
24618;DHT22;12762;51.730;5.356;2023-10-31T09:14:06;14.20;91.30
24618;DHT22;12762;51.730;5.356;2023-10-31T09:16:33;14.20;91.40
24618;DHT22;12762;51.730;5.356;2023-10-31T09:19:00;14.10;91.50
24618;DHT22;12762;51.730;5.356;2023-10-31T09:21:27;14.00;91.50
24618;DHT22;12762;51.730;5.356;2023-10-31T09:23:54;14.00;91.70
24618;DHT22;12762;51.730;5.356;2023-10-31T09:26:20;14.00;91.70
24618;DHT22;12762;51.730;5.356;2023-10-31T09:28:47;14.00;91.90
24618;DHT22;12762;51.730;5.356;2023-10-31T09:31:17;14.10;91.90
24618;DHT22;12762;51.730;5.356;2023-10-31T09:33:45;14.10;91.90
24618;DHT22;12762;51.730;5.356;2023-10-31T09:36:12;14.10;91.90
24618;DHT22;12762;51.730;5.356;2023-10-31T09:38:41;14.10;91.80
24618;DHT22;12762;51.730;5.356;2023-10-31T09:41:07;14.00;91.90
24618;DHT22;12762;51.730;5.356;2023-10-31T09:43:35;14.10;91.90
24618;DHT22;12762;51.730;5.356;2023-10-31T09:46:02;14.10;91.80
24618;DHT22;12762;51.730;5.356;2023-10-31T09:48:30;14.00;91.80
24618;DHT22;12762;51.730;5.356;2023-10-31T09:50:58;14.00;91.70
24618;DHT22;12762;51.730;5.356;2023-10-31T09:53:25;13.90;91.70
24618;DHT22;12762;51.730;5.356;2023-10-31T09:55:56;13.80;91.70
24618;DHT22;12762;51.730;5.356;2023-10-31T09:58:24;13.70;91.70
24618;DHT22;12762;51.730;5.356;2023-10-31T10:00:50;13.60;91.70
24618;DHT22;12762;51.730;5.356;2023-10-31T10:03:17;13.60;91.80
24618;DHT22;12762;51.730;5.356;2023-10-31T10:05:45;13.50;91.80
24618;DHT22;12762;51.730;5.356;2023-10-31T10:08:14;13.40;91.80
24618;DHT22;12762;51.730;5.356;2023-10-31T10:10:41;13.40;91.90
24618;DHT22;12762;51.730;5.356;2023-10-31T10:13:07;13.30;91.90
24618;DHT22;12762;51.730;5.356;2023-10-31T10:15:49;13.30;92.20
24618;DHT22;12762;51.730;5.356;2023-10-31T10:18:29;13.40;92.40
24618;DHT22;12762;51.730;5.356;2023-10-31T10:21:03;13.60;92.40
24618;DHT22;12762;51.730;5.356;2023-10-31T10:23:30;13.60;92.30
24618;DHT22;12762;51.730;5.356;2023-10-31T10:26:02;13.60;92.10
24618;DHT22;12762;51.730;5.356;2023-10-31T10:28:31;13.50;92.00
24618;DHT22;12762;51.730;5.356;2023-10-31T10:30:59;13.50;92.00
24618;DHT22;12762;51.730;5.356;2023-10-31T10:33:26;13.50;92.00
24618;DHT22;12762;51.730;5.356;2023-10-31T10:35:54;13.50;92.00
24618;DHT22;12762;51.730;5.356;2023-10-31T10:38:22;13.50;92.00
24618;DHT22;12762;51.730;5.356;2023-10-31T10:40:49;13.40;91.90
24618;DHT22;12762;51.730;5.356;2023-10-31T10:43:26;13.40;91.90
24618;DHT22;12762;51.730;5.356;2023-10-31T10:45:58;13.30;91.90
24618;DHT22;12762;51.730;5.356;2023-10-31T10:48:28;13.40;92.20
24618;DHT22;12762;51.730;5.356;2023-10-31T10:51:21;13.50;92.30
24618;DHT22;12762;51.730;5.356;2023-10-31T10:54:15;13.60;92.30
24618;DHT22;12762;51.730;5.356;2023-10-31T10:56:47;13.70;92.20
24618;DHT22;12762;51.730;5.356;2023-10-31T10:59:20;13.70;91.90
24618;DHT22;12762;51.730;5.356;2023-10-31T11:01:49;13.70;91.80
24618;DHT22;12762;51.730;5.356;2023-10-31T11:04:17;13.70;91.90
24618;DHT22;12762;51.730;5.356;2023-10-31T11:06:44;13.70;92.00
24618;DHT22;12762;51.730;5.356;2023-10-31T11:09:13;13.80;92.00
24618;DHT22;12762;51.730;5.356;2023-10-31T11:11:40;13.90;92.00
24618;DHT22;12762;51.730;5.356;2023-10-31T11:14:08;14.00;91.90
24618;DHT22;12762;51.730;5.356;2023-10-31T11:16:44;14.10;91.70
24618;DHT22;12762;51.730;5.356;2023-10-31T11:19:12;14.20;91.70
24618;DHT22;12762;51.730;5.356;2023-10-31T11:21:57;14.30;91.50
24618;DHT22;12762;51.730;5.356;2023-10-31T11:24:27;14.30;91.40
24618;DHT22;12762;51.730;5.356;2023-10-31T11:26:59;14.40;91.50
24618;DHT22;12762;51.730;5.356;2023-10-31T11:29:33;14.50;91.40
24618;DHT22;12762;51.730;5.356;2023-10-31T11:32:01;14.50;91.10
24618;DHT22;12762;51.730;5.356;2023-10-31T11:34:29;14.60;91.20
24618;DHT22;12762;51.730;5.356;2023-10-31T11:37:22;14.70;91.40
24618;DHT22;12762;51.730;5.356;2023-10-31T11:40:15;15.00;91.40
24618;DHT22;12762;51.730;5.356;2023-10-31T11:42:42;15.10;91.10
24618;DHT22;12762;51.730;5.356;2023-10-31T11:45:43;15.10;91.00
24618;DHT22;12762;51.730;5.356;2023-10-31T11:48:15;15.10;90.30
24618;DHT22;12762;51.730;5.356;2023-10-31T11:50:42;14.90;90.30
24618;DHT22;12762;51.730;5.356;2023-10-31T11:53:12;14.80;90.10
24618;DHT22;12762;51.730;5.356;2023-10-31T11:55:46;14.60;90.20
24618;DHT22;12762;51.730;5.356;2023-10-31T11:58:24;14.50;90.20
24618;DHT22;12762;51.730;5.356;2023-10-31T12:01:06;14.40;90.20
24618;DHT22;12762;51.730;5.356;2023-10-31T12:03:46;14.30;90.30
24618;DHT22;12762;51.730;5.356;2023-10-31T12:06:16;14.20;90.30
24618;DHT22;12762;51.730;5.356;2023-10-31T12:08:44;14.20;90.40
24618;DHT22;12762;51.730;5.356;2023-10-31T12:11:13;14.10;90.50
24618;DHT22;12762;51.730;5.356;2023-10-31T12:13:50;14.20;90.70
24618;DHT22;12762;51.730;5.356;2023-10-31T12:16:18;14.20;90.80
24618;DHT22;12762;51.730;5.356;2023-10-31T12:18:45;14.30;90.80
24618;DHT22;12762;51.730;5.356;2023-10-31T12:21:20;14.30;90.70
24618;DHT22;12762;51.730;5.356;2023-10-31T12:23:47;14.30;90.70
24618;DHT22;12762;51.730;5.356;2023-10-31T12:26:13;14.40;90.60
24618;DHT22;12762;51.730;5.356;2023-10-31T12:28:47;14.40;90.60
24618;DHT22;12762;51.730;5.356;2023-10-31T12:31:17;14.30;90.50
24618;DHT22;12762;51.730;5.356;2023-10-31T12:33:44;14.30;90.40
24618;DHT22;12762;51.730;5.356;2023-10-31T12:36:11;14.30;90.30
24618;DHT22;12762;51.730;5.356;2023-10-31T12:38:38;14.40;90.40
24618;DHT22;12762;51.730;5.356;2023-10-31T12:41:05;14.40;90.30
24618;DHT22;12762;51.730;5.356;2023-10-31T12:43:32;14.40;90.30
24618;DHT22;12762;51.730;5.356;2023-10-31T12:46:25;14.40;90.20
24618;DHT22;12762;51.730;5.356;2023-10-31T12:48:53;14.40;90.10
24618;DHT22;12762;51.730;5.356;2023-10-31T12:51:20;14.40;90.10
24618;DHT22;12762;51.730;5.356;2023-10-31T12:53:53;14.40;90.10
24618;DHT22;12762;51.730;5.356;2023-10-31T12:56:39;14.50;90.10
24618;DHT22;12762;51.730;5.356;2023-10-31T12:59:07;14.50;90.10
24618;DHT22;12762;51.730;5.356;2023-10-31T13:01:43;14.50;90.00
24618;DHT22;12762;51.730;5.356;2023-10-31T13:04:09;14.50;89.80
24618;DHT22;12762;51.730;5.356;2023-10-31T13:06:37;14.60;90.00
24618;DHT22;12762;51.730;5.356;2023-10-31T13:09:07;14.70;90.00
24618;DHT22;12762;51.730;5.356;2023-10-31T13:11:40;14.70;89.60
24618;DHT22;12762;51.730;5.356;2023-10-31T13:14:12;14.70;89.50
24618;DHT22;12762;51.730;5.356;2023-10-31T13:16:40;14.70;89.50
24618;DHT22;12762;51.730;5.356;2023-10-31T13:19:07;14.70;89.20
24618;DHT22;12762;51.730;5.356;2023-10-31T13:21:35;14.70;89.20
24618;DHT22;12762;51.730;5.356;2023-10-31T13:24:01;14.60;88.90
24618;DHT22;12762;51.730;5.356;2023-10-31T13:26:30;14.50;88.30
24618;DHT22;12762;51.730;5.356;2023-10-31T13:28:57;14.40;88.30
24618;DHT22;12762;51.730;5.356;2023-10-31T13:31:24;14.30;88.40
24618;DHT22;12762;51.730;5.356;2023-10-31T13:33:53;14.30;88.60
24618;DHT22;12762;51.730;5.356;2023-10-31T13:36:20;14.30;88.50
24618;DHT22;12762;51.730;5.356;2023-10-31T13:38:47;14.30;88.50
24618;DHT22;12762;51.730;5.356;2023-10-31T13:41:15;14.20;88.30
24618;DHT22;12762;51.730;5.356;2023-10-31T13:43:45;14.20;88.30
24618;DHT22;12762;51.730;5.356;2023-10-31T13:46:11;14.20;88.30
24618;DHT22;12762;51.730;5.356;2023-10-31T13:48:38;14.20;88.50
24618;DHT22;12762;51.730;5.356;2023-10-31T13:51:07;14.10;88.50
24618;DHT22;12762;51.730;5.356;2023-10-31T13:53:34;14.20;88.60
24618;DHT22;12762;51.730;5.356;2023-10-31T13:56:00;14.20;88.50
24618;DHT22;12762;51.730;5.356;2023-10-31T13:58:35;14.20;88.50
24618;DHT22;12762;51.730;5.356;2023-10-31T14:01:02;14.20;88.40
24618;DHT22;12762;51.730;5.356;2023-10-31T14:03:29;14.20;88.50
24618;DHT22;12762;51.730;5.356;2023-10-31T14:05:56;14.20;88.30
24618;DHT22;12762;51.730;5.356;2023-10-31T14:08:26;14.20;88.20
24618;DHT22;12762;51.730;5.356;2023-10-31T14:10:53;14.20;88.30
24618;DHT22;12762;51.730;5.356;2023-10-31T14:13:23;14.20;88.30
24618;DHT22;12762;51.730;5.356;2023-10-31T14:15:53;14.20;88.40
24618;DHT22;12762;51.730;5.356;2023-10-31T14:18:20;14.20;88.30
24618;DHT22;12762;51.730;5.356;2023-10-31T14:20:49;14.20;88.20
24618;DHT22;12762;51.730;5.356;2023-10-31T14:23:16;14.10;88.00
24618;DHT22;12762;51.730;5.356;2023-10-31T14:25:44;14.10;88.00
24618;DHT22;12762;51.730;5.356;2023-10-31T14:28:11;14.10;87.80
24618;DHT22;12762;51.730;5.356;2023-10-31T14:30:38;14.10;87.90
24618;DHT22;12762;51.730;5.356;2023-10-31T14:33:09;14.10;88.00
24618;DHT22;12762;51.730;5.356;2023-10-31T14:35:36;14.00;87.70
24618;DHT22;12762;51.730;5.356;2023-10-31T14:38:05;14.00;87.60
24618;DHT22;12762;51.730;5.356;2023-10-31T14:40:32;13.90;87.50
24618;DHT22;12762;51.730;5.356;2023-10-31T14:42:58;13.90;87.50
24618;DHT22;12762;51.730;5.356;2023-10-31T14:45:25;13.90;87.50
24618;DHT22;12762;51.730;5.356;2023-10-31T14:47:52;13.90;87.40
24618;DHT22;12762;51.730;5.356;2023-10-31T14:50:19;13.80;87.40
24618;DHT22;12762;51.730;5.356;2023-10-31T14:52:47;13.80;87.50
24618;DHT22;12762;51.730;5.356;2023-10-31T14:55:17;13.70;87.50
24618;DHT22;12762;51.730;5.356;2023-10-31T14:57:44;13.70;87.50
24618;DHT22;12762;51.730;5.356;2023-10-31T15:00:11;13.60;87.50
24618;DHT22;12762;51.730;5.356;2023-10-31T15:02:40;13.60;88.20
24618;DHT22;12762;51.730;5.356;2023-10-31T15:05:07;13.50;88.00
24618;DHT22;12762;51.730;5.356;2023-10-31T15:07:34;13.50;88.10
24618;DHT22;12762;51.730;5.356;2023-10-31T15:10:01;13.40;88.20
24618;DHT22;12762;51.730;5.356;2023-10-31T15:12:29;13.40;88.50
24618;DHT22;12762;51.730;5.356;2023-10-31T15:14:56;13.40;88.60
24618;DHT22;12762;51.730;5.356;2023-10-31T15:17:23;13.30;88.60
24618;DHT22;12762;51.730;5.356;2023-10-31T15:19:50;13.30;88.70
24618;DHT22;12762;51.730;5.356;2023-10-31T15:22:16;13.20;88.90
24618;DHT22;12762;51.730;5.356;2023-10-31T15:24:43;13.20;89.20
24618;DHT22;12762;51.730;5.356;2023-10-31T15:27:13;13.20;89.40
24618;DHT22;12762;51.730;5.356;2023-10-31T15:29:44;13.20;89.60
24618;DHT22;12762;51.730;5.356;2023-10-31T15:32:11;13.30;89.80
24618;DHT22;12762;51.730;5.356;2023-10-31T15:34:39;13.30;89.80
24618;DHT22;12762;51.730;5.356;2023-10-31T15:37:09;13.30;89.90